Terminal Aerodrome Forecast
Issued by NWS Portland, OR

Home | Current Version | Previous Version | Text Only | Print | Product List | Glossary On
Versions: 1 2 3 4 5 6 7 8 9 10 11 12 13 14 15 16 17 18 19 20 21 22 23 24 25 26 27
000
FTUS46 KPQR 210523
TAFSLE
TAF
KSLE 210523Z 2106/2206 35006KT P6SM SKC
     FM211300 29004KT P6SM OVC019
     FM211800 35007KT P6SM OVC030
     FM212000 34013G19KT P6SM OVC050=

USA.gov is the U.S. government's official web portal to all federal, state and local government web resources and services.